sensor_id;sensor_type;location;lat;lon;timestamp;P1;durP1;ratioP1;P2;durP2;ratioP2
35877;SDS011;21982;49.804;24.072;2023-05-03T00:00:59;10.32;;;5.43;;
35877;SDS011;21982;49.804;24.072;2023-05-03T00:03:25;9.88;;;5.45;;
35877;SDS011;21982;49.804;24.072;2023-05-03T00:05:51;8.70;;;5.78;;
35877;SDS011;21982;49.804;24.072;2023-05-03T00:08:17;11.20;;;5.93;;
35877;SDS011;21982;49.804;24.072;2023-05-03T00:10:43;10.35;;;5.88;;
35877;SDS011;21982;49.804;24.072;2023-05-03T00:13:08;10.80;;;5.25;;
35877;SDS011;21982;49.804;24.072;2023-05-03T00:15:34;9.68;;;5.32;;
35877;SDS011;21982;49.804;24.072;2023-05-03T00:17:59;8.48;;;5.38;;
35877;SDS011;21982;49.804;24.072;2023-05-03T00:20:24;10.20;;;5.55;;
35877;SDS011;21982;49.804;24.072;2023-05-03T00:25:25;9.38;;;5.30;;
35877;SDS011;21982;49.804;24.072;2023-05-03T00:27:50;11.75;;;5.68;;
35877;SDS011;21982;49.804;24.072;2023-05-03T00:30:16;10.50;;;5.18;;
35877;SDS011;21982;49.804;24.072;2023-05-03T00:32:43;10.40;;;5.93;;
35877;SDS011;21982;49.804;24.072;2023-05-03T00:35:08;9.60;;;6.07;;
35877;SDS011;21982;49.804;24.072;2023-05-03T00:37:33;9.88;;;6.63;;
35877;SDS011;21982;49.804;24.072;2023-05-03T00:40:02;10.85;;;6.03;;
35877;SDS011;21982;49.804;24.072;2023-05-03T00:42:28;13.07;;;6.75;;
35877;SDS011;21982;49.804;24.072;2023-05-03T00:44:54;10.50;;;6.60;;
35877;SDS011;21982;49.804;24.072;2023-05-03T00:47:20;11.43;;;6.25;;
35877;SDS011;21982;49.804;24.072;2023-05-03T00:49:46;10.82;;;7.50;;
35877;SDS011;21982;49.804;24.072;2023-05-03T00:52:12;11.18;;;6.68;;
35877;SDS011;21982;49.804;24.072;2023-05-03T00:54:38;14.88;;;7.63;;
35877;SDS011;21982;49.804;24.072;2023-05-03T00:57:04;12.05;;;7.97;;
35877;SDS011;21982;49.804;24.072;2023-05-03T00:59:31;13.45;;;7.72;;
35877;SDS011;21982;49.804;24.072;2023-05-03T01:01:57;9.85;;;6.68;;
35877;SDS011;21982;49.804;24.072;2023-05-03T01:04:22;18.45;;;8.15;;
35877;SDS011;21982;49.804;24.072;2023-05-03T01:09:48;12.98;;;7.45;;
35877;SDS011;21982;49.804;24.072;2023-05-03T01:12:42;12.20;;;7.30;;
35877;SDS011;21982;49.804;24.072;2023-05-03T01:17:56;13.98;;;8.75;;
35877;SDS011;21982;49.804;24.072;2023-05-03T01:20:26;12.43;;;8.10;;
35877;SDS011;21982;49.804;24.072;2023-05-03T01:25:23;13.57;;;8.55;;
35877;SDS011;21982;49.804;24.072;2023-05-03T01:27:51;12.40;;;7.72;;
35877;SDS011;21982;49.804;24.072;2023-05-03T01:30:17;11.25;;;6.85;;
35877;SDS011;21982;49.804;24.072;2023-05-03T01:33:02;13.57;;;7.72;;
35877;SDS011;21982;49.804;24.072;2023-05-03T01:35:36;13.35;;;7.32;;
35877;SDS011;21982;49.804;24.072;2023-05-03T01:38:42;13.13;;;7.28;;
35877;SDS011;21982;49.804;24.072;2023-05-03T01:41:09;12.32;;;8.13;;
35877;SDS011;21982;49.804;24.072;2023-05-03T01:43:36;15.05;;;9.27;;
35877;SDS011;21982;49.804;24.072;2023-05-03T01:46:04;13.23;;;7.95;;
35877;SDS011;21982;49.804;24.072;2023-05-03T01:48:29;13.57;;;8.50;;
35877;SDS011;21982;49.804;24.072;2023-05-03T01:50:55;15.32;;;7.95;;
35877;SDS011;21982;49.804;24.072;2023-05-03T01:53:20;14.18;;;7.82;;
35877;SDS011;21982;49.804;24.072;2023-05-03T01:55:45;12.90;;;9.00;;
35877;SDS011;21982;49.804;24.072;2023-05-03T01:58:11;12.45;;;8.65;;
35877;SDS011;21982;49.804;24.072;2023-05-03T02:00:36;14.85;;;8.88;;
35877;SDS011;21982;49.804;24.072;2023-05-03T02:03:02;15.10;;;9.45;;
35877;SDS011;21982;49.804;24.072;2023-05-03T02:05:28;21.13;;;10.85;;
35877;SDS011;21982;49.804;24.072;2023-05-03T02:07:53;17.13;;;9.75;;
35877;SDS011;21982;49.804;24.072;2023-05-03T02:10:19;16.40;;;10.25;;
35877;SDS011;21982;49.804;24.072;2023-05-03T02:12:45;21.23;;;10.48;;
35877;SDS011;21982;49.804;24.072;2023-05-03T02:15:10;19.17;;;10.35;;
35877;SDS011;21982;49.804;24.072;2023-05-03T02:17:36;17.00;;;9.23;;
35877;SDS011;21982;49.804;24.072;2023-05-03T02:20:03;17.63;;;10.73;;
35877;SDS011;21982;49.804;24.072;2023-05-03T02:22:30;17.52;;;11.98;;
35877;SDS011;21982;49.804;24.072;2023-05-03T02:24:56;18.88;;;10.73;;
35877;SDS011;21982;49.804;24.072;2023-05-03T02:27:22;15.00;;;9.20;;
35877;SDS011;21982;49.804;24.072;2023-05-03T02:29:48;24.25;;;12.45;;
35877;SDS011;21982;49.804;24.072;2023-05-03T02:32:14;17.83;;;10.13;;
35877;SDS011;21982;49.804;24.072;2023-05-03T02:34:40;14.88;;;10.93;;
35877;SDS011;21982;49.804;24.072;2023-05-03T02:37:11;16.55;;;10.88;;
35877;SDS011;21982;49.804;24.072;2023-05-03T02:39:37;19.05;;;11.52;;
35877;SDS011;21982;49.804;24.072;2023-05-03T02:42:03;22.58;;;13.60;;
35877;SDS011;21982;49.804;24.072;2023-05-03T02:44:28;21.60;;;14.57;;
35877;SDS011;21982;49.804;24.072;2023-05-03T02:46:54;28.92;;;19.35;;
35877;SDS011;21982;49.804;24.072;2023-05-03T02:49:19;31.40;;;17.98;;
35877;SDS011;21982;49.804;24.072;2023-05-03T02:51:45;22.70;;;15.30;;
35877;SDS011;21982;49.804;24.072;2023-05-03T02:54:10;19.52;;;13.10;;
35877;SDS011;21982;49.804;24.072;2023-05-03T02:56:36;21.63;;;13.02;;
35877;SDS011;21982;49.804;24.072;2023-05-03T03:01:33;23.52;;;15.68;;
35877;SDS011;21982;49.804;24.072;2023-05-03T03:04:00;23.60;;;15.25;;
35877;SDS011;21982;49.804;24.072;2023-05-03T03:06:25;24.05;;;15.35;;
35877;SDS011;21982;49.804;24.072;2023-05-03T03:08:51;20.70;;;14.23;;
35877;SDS011;21982;49.804;24.072;2023-05-03T03:11:16;19.20;;;13.02;;
35877;SDS011;21982;49.804;24.072;2023-05-03T03:13:41;13.30;;;9.88;;
35877;SDS011;21982;49.804;24.072;2023-05-03T03:16:07;13.75;;;9.75;;
35877;SDS011;21982;49.804;24.072;2023-05-03T03:18:33;13.32;;;8.32;;
35877;SDS011;21982;49.804;24.072;2023-05-03T03:21:03;13.68;;;8.40;;
35877;SDS011;21982;49.804;24.072;2023-05-03T03:23:28;23.80;;;14.73;;
35877;SDS011;21982;49.804;24.072;2023-05-03T03:25:55;50.78;;;32.17;;
35877;SDS011;21982;49.804;24.072;2023-05-03T03:28:20;61.22;;;39.78;;
35877;SDS011;21982;49.804;24.072;2023-05-03T03:30:47;31.67;;;19.95;;
35877;SDS011;21982;49.804;24.072;2023-05-03T03:33:13;24.48;;;13.65;;
35877;SDS011;21982;49.804;24.072;2023-05-03T03:35:38;15.88;;;10.38;;
35877;SDS011;21982;49.804;24.072;2023-05-03T03:38:03;14.77;;;9.32;;
35877;SDS011;21982;49.804;24.072;2023-05-03T03:40:29;13.90;;;8.98;;
35877;SDS011;21982;49.804;24.072;2023-05-03T03:42:55;14.27;;;7.78;;
35877;SDS011;21982;49.804;24.072;2023-05-03T03:45:20;15.40;;;7.68;;
35877;SDS011;21982;49.804;24.072;2023-05-03T03:47:46;21.13;;;8.77;;
35877;SDS011;21982;49.804;24.072;2023-05-03T03:50:11;16.13;;;7.95;;
35877;SDS011;21982;49.804;24.072;2023-05-03T03:52:36;13.02;;;7.75;;
35877;SDS011;21982;49.804;24.072;2023-05-03T03:55:02;14.73;;;8.80;;
35877;SDS011;21982;49.804;24.072;2023-05-03T03:57:28;14.80;;;7.38;;
35877;SDS011;21982;49.804;24.072;2023-05-03T04:02:57;12.82;;;7.30;;
35877;SDS011;21982;49.804;24.072;2023-05-03T04:05:24;14.25;;;8.70;;
35877;SDS011;21982;49.804;24.072;2023-05-03T04:07:49;17.92;;;8.80;;
35877;SDS011;21982;49.804;24.072;2023-05-03T04:10:16;20.13;;;9.20;;
35877;SDS011;21982;49.804;24.072;2023-05-03T04:12:41;17.45;;;10.95;;
35877;SDS011;21982;49.804;24.072;2023-05-03T04:15:08;18.23;;;10.15;;
35877;SDS011;21982;49.804;24.072;2023-05-03T04:17:34;15.82;;;9.30;;
35877;SDS011;21982;49.804;24.072;2023-05-03T04:20:03;16.55;;;9.85;;
35877;SDS011;21982;49.804;24.072;2023-05-03T04:22:31;15.40;;;9.07;;
35877;SDS011;21982;49.804;24.072;2023-05-03T04:24:56;13.80;;;8.90;;
35877;SDS011;21982;49.804;24.072;2023-05-03T04:27:25;13.50;;;8.95;;
35877;SDS011;21982;49.804;24.072;2023-05-03T04:29:50;12.40;;;8.02;;
35877;SDS011;21982;49.804;24.072;2023-05-03T04:32:16;10.85;;;7.53;;
35877;SDS011;21982;49.804;24.072;2023-05-03T04:34:44;12.20;;;7.70;;
35877;SDS011;21982;49.804;24.072;2023-05-03T04:37:10;13.77;;;6.85;;
35877;SDS011;21982;49.804;24.072;2023-05-03T04:39:35;18.13;;;8.30;;
35877;SDS011;21982;49.804;24.072;2023-05-03T04:42:00;19.95;;;8.52;;
35877;SDS011;21982;49.804;24.072;2023-05-03T04:44:26;13.82;;;7.60;;
35877;SDS011;21982;49.804;24.072;2023-05-03T04:46:51;11.30;;;6.88;;
35877;SDS011;21982;49.804;24.072;2023-05-03T04:49:17;13.18;;;7.40;;
35877;SDS011;21982;49.804;24.072;2023-05-03T04:51:44;14.27;;;6.68;;
35877;SDS011;21982;49.804;24.072;2023-05-03T04:54:09;12.23;;;6.32;;
35877;SDS011;21982;49.804;24.072;2023-05-03T04:56:38;11.57;;;6.22;;
35877;SDS011;21982;49.804;24.072;2023-05-03T04:59:05;10.60;;;6.72;;
35877;SDS011;21982;49.804;24.072;2023-05-03T05:01:32;9.48;;;5.50;;
35877;SDS011;21982;49.804;24.072;2023-05-03T05:04:00;12.82;;;6.72;;
35877;SDS011;21982;49.804;24.072;2023-05-03T05:06:27;15.30;;;6.88;;
35877;SDS011;21982;49.804;24.072;2023-05-03T05:08:53;13.88;;;7.50;;
35877;SDS011;21982;49.804;24.072;2023-05-03T05:11:19;16.10;;;6.50;;
35877;SDS011;21982;49.804;24.072;2023-05-03T05:16:20;15.45;;;7.20;;
35877;SDS011;21982;49.804;24.072;2023-05-03T05:18:46;16.00;;;6.88;;
35877;SDS011;21982;49.804;24.072;2023-05-03T05:21:12;11.52;;;7.13;;
35877;SDS011;21982;49.804;24.072;2023-05-03T05:23:41;17.67;;;7.32;;
35877;SDS011;21982;49.804;24.072;2023-05-03T05:26:08;13.05;;;7.95;;
35877;SDS011;21982;49.804;24.072;2023-05-03T05:28:33;13.20;;;7.43;;
35877;SDS011;21982;49.804;24.072;2023-05-03T05:30:58;14.85;;;8.75;;
35877;SDS011;21982;49.804;24.072;2023-05-03T05:33:25;23.65;;;8.75;;
35877;SDS011;21982;49.804;24.072;2023-05-03T05:35:50;14.68;;;7.18;;
35877;SDS011;21982;49.804;24.072;2023-05-03T05:38:15;12.25;;;6.30;;
35877;SDS011;21982;49.804;24.072;2023-05-03T05:40:43;9.45;;;5.72;;
35877;SDS011;21982;49.804;24.072;2023-05-03T05:45:44;10.88;;;5.55;;
35877;SDS011;21982;49.804;24.072;2023-05-03T05:48:09;12.55;;;5.93;;
35877;SDS011;21982;49.804;24.072;2023-05-03T05:50:35;10.10;;;5.15;;
35877;SDS011;21982;49.804;24.072;2023-05-03T05:53:00;14.43;;;5.72;;
35877;SDS011;21982;49.804;24.072;2023-05-03T05:55:26;10.88;;;5.63;;
35877;SDS011;21982;49.804;24.072;2023-05-03T05:57:52;9.20;;;4.60;;
35877;SDS011;21982;49.804;24.072;2023-05-03T06:00:19;8.52;;;4.72;;
35877;SDS011;21982;49.804;24.072;2023-05-03T06:02:45;8.90;;;3.88;;
35877;SDS011;21982;49.804;24.072;2023-05-03T06:05:11;7.65;;;3.80;;
35877;SDS011;21982;49.804;24.072;2023-05-03T06:07:37;6.68;;;3.47;;
35877;SDS011;21982;49.804;24.072;2023-05-03T06:10:02;5.55;;;2.78;;
35877;SDS011;21982;49.804;24.072;2023-05-03T06:12:29;5.30;;;3.38;;
35877;SDS011;21982;49.804;24.072;2023-05-03T06:14:54;9.70;;;3.65;;
35877;SDS011;21982;49.804;24.072;2023-05-03T06:17:20;6.43;;;3.22;;
35877;SDS011;21982;49.804;24.072;2023-05-03T06:19:47;7.75;;;3.70;;
35877;SDS011;21982;49.804;24.072;2023-05-03T06:22:14;8.35;;;3.97;;
35877;SDS011;21982;49.804;24.072;2023-05-03T06:24:39;6.97;;;3.67;;
35877;SDS011;21982;49.804;24.072;2023-05-03T06:27:05;8.50;;;3.15;;
35877;SDS011;21982;49.804;24.072;2023-05-03T06:29:30;7.07;;;3.10;;
35877;SDS011;21982;49.804;24.072;2023-05-03T06:31:56;7.00;;;3.22;;
35877;SDS011;21982;49.804;24.072;2023-05-03T06:34:21;6.45;;;2.90;;
35877;SDS011;21982;49.804;24.072;2023-05-03T06:36:48;5.72;;;2.83;;
35877;SDS011;21982;49.804;24.072;2023-05-03T06:39:14;5.57;;;2.80;;
35877;SDS011;21982;49.804;24.072;2023-05-03T06:41:40;5.10;;;2.53;;
35877;SDS011;21982;49.804;24.072;2023-05-03T06:44:06;10.88;;;3.20;;
35877;SDS011;21982;49.804;24.072;2023-05-03T06:46:31;7.25;;;3.45;;
35877;SDS011;21982;49.804;24.072;2023-05-03T06:48:57;6.18;;;3.83;;
35877;SDS011;21982;49.804;24.072;2023-05-03T06:51:23;8.35;;;3.55;;
35877;SDS011;21982;49.804;24.072;2023-05-03T06:53:55;5.70;;;3.28;;
35877;SDS011;21982;49.804;24.072;2023-05-03T06:56:22;5.70;;;2.95;;
35877;SDS011;21982;49.804;24.072;2023-05-03T06:58:48;8.13;;;3.53;;
35877;SDS011;21982;49.804;24.072;2023-05-03T07:01:14;7.60;;;3.30;;
35877;SDS011;21982;49.804;24.072;2023-05-03T07:03:40;9.70;;;3.70;;
35877;SDS011;21982;49.804;24.072;2023-05-03T07:06:05;10.77;;;3.60;;
35877;SDS011;21982;49.804;24.072;2023-05-03T07:08:32;8.73;;;3.80;;
35877;SDS011;21982;49.804;24.072;2023-05-03T07:10:57;9.65;;;4.40;;
35877;SDS011;21982;49.804;24.072;2023-05-03T07:13:23;7.93;;;3.88;;
35877;SDS011;21982;49.804;24.072;2023-05-03T07:15:48;6.95;;;4.53;;
35877;SDS011;21982;49.804;24.072;2023-05-03T07:18:17;10.40;;;4.25;;
35877;SDS011;21982;49.804;24.072;2023-05-03T07:20:45;10.38;;;4.35;;
35877;SDS011;21982;49.804;24.072;2023-05-03T07:23:12;6.68;;;3.85;;
35877;SDS011;21982;49.804;24.072;2023-05-03T07:25:38;5.90;;;3.15;;
35877;SDS011;21982;49.804;24.072;2023-05-03T07:28:04;9.13;;;4.10;;
35877;SDS011;21982;49.804;24.072;2023-05-03T07:30:35;7.35;;;3.80;;
35877;SDS011;21982;49.804;24.072;2023-05-03T07:33:01;8.32;;;3.53;;
35877;SDS011;21982;49.804;24.072;2023-05-03T07:35:26;8.27;;;4.50;;
35877;SDS011;21982;49.804;24.072;2023-05-03T07:37:52;10.00;;;4.20;;
35877;SDS011;21982;49.804;24.072;2023-05-03T07:40:18;8.93;;;4.32;;
35877;SDS011;21982;49.804;24.072;2023-05-03T07:42:43;11.90;;;4.63;;
35877;SDS011;21982;49.804;24.072;2023-05-03T07:45:08;9.93;;;4.00;;
35877;SDS011;21982;49.804;24.072;2023-05-03T07:47:34;8.80;;;4.50;;
35877;SDS011;21982;49.804;24.072;2023-05-03T07:50:03;10.93;;;4.55;;
35877;SDS011;21982;49.804;24.072;2023-05-03T07:52:33;10.73;;;4.75;;
35877;SDS011;21982;49.804;24.072;2023-05-03T07:55:00;13.27;;;4.70;;
35877;SDS011;21982;49.804;24.072;2023-05-03T07:57:27;10.25;;;5.28;;
35877;SDS011;21982;49.804;24.072;2023-05-03T07:59:53;9.15;;;5.15;;
35877;SDS011;21982;49.804;24.072;2023-05-03T08:02:21;8.60;;;5.25;;
35877;SDS011;21982;49.804;24.072;2023-05-03T08:04:46;8.68;;;5.05;;
35877;SDS011;21982;49.804;24.072;2023-05-03T08:07:12;11.25;;;5.35;;
35877;SDS011;21982;49.804;24.072;2023-05-03T08:09:38;9.45;;;5.20;;
35877;SDS011;21982;49.804;24.072;2023-05-03T08:12:04;13.88;;;6.55;;
35877;SDS011;21982;49.804;24.072;2023-05-03T08:14:48;8.35;;;5.50;;
35877;SDS011;21982;49.804;24.072;2023-05-03T08:17:13;10.35;;;5.35;;
35877;SDS011;21982;49.804;24.072;2023-05-03T08:19:38;7.78;;;4.40;;
35877;SDS011;21982;49.804;24.072;2023-05-03T08:22:04;8.35;;;4.03;;
35877;SDS011;21982;49.804;24.072;2023-05-03T08:24:31;7.60;;;4.40;;
35877;SDS011;21982;49.804;24.072;2023-05-03T08:26:56;9.75;;;4.40;;
35877;SDS011;21982;49.804;24.072;2023-05-03T08:29:22;6.85;;;4.47;;
35877;SDS011;21982;49.804;24.072;2023-05-03T08:31:48;7.40;;;4.38;;
35877;SDS011;21982;49.804;24.072;2023-05-03T08:34:13;7.22;;;4.43;;
35877;SDS011;21982;49.804;24.072;2023-05-03T08:36:39;10.07;;;4.78;;
35877;SDS011;21982;49.804;24.072;2023-05-03T08:39:05;7.45;;;4.80;;
35877;SDS011;21982;49.804;24.072;2023-05-03T08:41:31;9.60;;;4.80;;
35877;SDS011;21982;49.804;24.072;2023-05-03T08:43:57;7.32;;;5.13;;
35877;SDS011;21982;49.804;24.072;2023-05-03T08:46:26;8.65;;;5.30;;
35877;SDS011;21982;49.804;24.072;2023-05-03T08:48:53;9.40;;;5.43;;
35877;SDS011;21982;49.804;24.072;2023-05-03T08:51:20;10.32;;;4.85;;
35877;SDS011;21982;49.804;24.072;2023-05-03T08:53:46;10.55;;;6.25;;
35877;SDS011;21982;49.804;24.072;2023-05-03T08:56:22;8.82;;;6.03;;
35877;SDS011;21982;49.804;24.072;2023-05-03T08:58:52;7.25;;;4.88;;
35877;SDS011;21982;49.804;24.072;2023-05-03T09:01:18;7.55;;;4.80;;
35877;SDS011;21982;49.804;24.072;2023-05-03T09:03:47;8.95;;;4.95;;
35877;SDS011;21982;49.804;24.072;2023-05-03T09:06:22;9.05;;;5.00;;
35877;SDS011;21982;49.804;24.072;2023-05-03T09:08:53;9.35;;;4.60;;
35877;SDS011;21982;49.804;24.072;2023-05-03T09:11:22;8.27;;;4.65;;
35877;SDS011;21982;49.804;24.072;2023-05-03T09:13:52;11.75;;;5.28;;
35877;SDS011;21982;49.804;24.072;2023-05-03T09:16:24;7.70;;;4.32;;
35877;SDS011;21982;49.804;24.072;2023-05-03T09:18:57;8.52;;;4.80;;
35877;SDS011;21982;49.804;24.072;2023-05-03T09:21:30;9.82;;;5.32;;
35877;SDS011;21982;49.804;24.072;2023-05-03T09:23:59;8.02;;;4.95;;
35877;SDS011;21982;49.804;24.072;2023-05-03T09:26:32;8.40;;;4.32;;
35877;SDS011;21982;49.804;24.072;2023-05-03T09:29:02;12.27;;;5.25;;
35877;SDS011;21982;49.804;24.072;2023-05-03T09:31:33;7.05;;;3.97;;
35877;SDS011;21982;49.804;24.072;2023-05-03T09:34:19;9.02;;;5.30;;
35877;SDS011;21982;49.804;24.072;2023-05-03T09:36:48;6.88;;;4.28;;
35877;SDS011;21982;49.804;24.072;2023-05-03T09:39:16;10.35;;;4.75;;
35877;SDS011;21982;49.804;24.072;2023-05-03T09:41:43;9.38;;;4.80;;
35877;SDS011;21982;49.804;24.072;2023-05-03T09:44:09;10.35;;;5.18;;
35877;SDS011;21982;49.804;24.072;2023-05-03T09:46:35;11.02;;;5.32;;
35877;SDS011;21982;49.804;24.072;2023-05-03T09:49:01;9.93;;;5.30;;
35877;SDS011;21982;49.804;24.072;2023-05-03T09:51:28;8.63;;;5.05;;
35877;SDS011;21982;49.804;24.072;2023-05-03T09:53:58;13.63;;;5.47;;
35877;SDS011;21982;49.804;24.072;2023-05-03T09:56:23;10.52;;;5.13;;
35877;SDS011;21982;49.804;24.072;2023-05-03T09:58:52;12.23;;;4.97;;
35877;SDS011;21982;49.804;24.072;2023-05-03T10:01:18;10.77;;;5.45;;
35877;SDS011;21982;49.804;24.072;2023-05-03T10:03:47;10.25;;;5.68;;
35877;SDS011;21982;49.804;24.072;2023-05-03T10:08:48;8.73;;;5.70;;
35877;SDS011;21982;49.804;24.072;2023-05-03T10:11:17;13.45;;;5.82;;
35877;SDS011;21982;49.804;24.072;2023-05-03T10:13:43;9.38;;;5.85;;
35877;SDS011;21982;49.804;24.072;2023-05-03T10:16:11;8.63;;;5.38;;
35877;SDS011;21982;49.804;24.072;2023-05-03T10:18:58;8.38;;;5.00;;
35877;SDS011;21982;49.804;24.072;2023-05-03T10:21:41;11.50;;;4.75;;
35877;SDS011;21982;49.804;24.072;2023-05-03T10:24:25;8.52;;;4.93;;
35877;SDS011;21982;49.804;24.072;2023-05-03T10:26:51;8.20;;;4.75;;
35877;SDS011;21982;49.804;24.072;2023-05-03T10:34:58;9.75;;;5.18;;
35877;SDS011;21982;49.804;24.072;2023-05-03T10:37:30;9.63;;;5.10;;
35877;SDS011;21982;49.804;24.072;2023-05-03T10:40:09;7.72;;;4.28;;
35877;SDS011;21982;49.804;24.072;2023-05-03T10:42:42;8.15;;;5.18;;
35877;SDS011;21982;49.804;24.072;2023-05-03T10:45:18;9.15;;;4.68;;
35877;SDS011;21982;49.804;24.072;2023-05-03T10:50:39;7.25;;;4.68;;
35877;SDS011;21982;49.804;24.072;2023-05-03T10:53:06;8.20;;;5.10;;
35877;SDS011;21982;49.804;24.072;2023-05-03T10:55:32;9.25;;;5.32;;
35877;SDS011;21982;49.804;24.072;2023-05-03T10:57:58;8.48;;;4.50;;
35877;SDS011;21982;49.804;24.072;2023-05-03T11:03:08;9.88;;;5.13;;
35877;SDS011;21982;49.804;24.072;2023-05-03T11:05:37;9.43;;;5.10;;
35877;SDS011;21982;49.804;24.072;2023-05-03T11:10:42;10.30;;;5.43;;
35877;SDS011;21982;49.804;24.072;2023-05-03T11:13:11;9.40;;;4.57;;
35877;SDS011;21982;49.804;24.072;2023-05-03T11:15:37;10.98;;;5.03;;
35877;SDS011;21982;49.804;24.072;2023-05-03T11:18:04;9.05;;;4.32;;
35877;SDS011;21982;49.804;24.072;2023-05-03T11:20:31;8.52;;;4.72;;
35877;SDS011;21982;49.804;24.072;2023-05-03T11:22:56;10.38;;;4.78;;
35877;SDS011;21982;49.804;24.072;2023-05-03T11:25:22;9.73;;;5.28;;
35877;SDS011;21982;49.804;24.072;2023-05-03T11:27:47;10.27;;;4.45;;
35877;SDS011;21982;49.804;24.072;2023-05-03T11:30:14;8.85;;;4.60;;
35877;SDS011;21982;49.804;24.072;2023-05-03T11:32:43;6.18;;;3.42;;
35877;SDS011;21982;49.804;24.072;2023-05-03T11:35:09;6.93;;;3.92;;
35877;SDS011;21982;49.804;24.072;2023-05-03T11:37:37;6.78;;;3.47;;
35877;SDS011;21982;49.804;24.072;2023-05-03T11:40:03;9.15;;;4.05;;
35877;SDS011;21982;49.804;24.072;2023-05-03T11:42:30;5.07;;;3.30;;
35877;SDS011;21982;49.804;24.072;2023-05-03T11:44:56;7.45;;;4.60;;
35877;SDS011;21982;49.804;24.072;2023-05-03T11:47:24;8.65;;;3.83;;
35877;SDS011;21982;49.804;24.072;2023-05-03T11:49:55;6.18;;;4.28;;
35877;SDS011;21982;49.804;24.072;2023-05-03T11:52:25;8.32;;;3.63;;
35877;SDS011;21982;49.804;24.072;2023-05-03T11:57:26;7.25;;;3.58;;
35877;SDS011;21982;49.804;24.072;2023-05-03T11:59:52;6.68;;;3.08;;
35877;SDS011;21982;49.804;24.072;2023-05-03T12:02:17;7.07;;;2.75;;
35877;SDS011;21982;49.804;24.072;2023-05-03T12:04:43;6.72;;;3.40;;
35877;SDS011;21982;49.804;24.072;2023-05-03T12:07:08;6.63;;;3.30;;
35877;SDS011;21982;49.804;24.072;2023-05-03T12:09:35;7.00;;;3.55;;
35877;SDS011;21982;49.804;24.072;2023-05-03T12:12:01;6.55;;;3.22;;
35877;SDS011;21982;49.804;24.072;2023-05-03T12:14:27;8.52;;;3.40;;
35877;SDS011;21982;49.804;24.072;2023-05-03T12:16:53;7.53;;;4.05;;
35877;SDS011;21982;49.804;24.072;2023-05-03T12:19:29;5.90;;;3.55;;
35877;SDS011;21982;49.804;24.072;2023-05-03T12:21:55;9.20;;;3.70;;
35877;SDS011;21982;49.804;24.072;2023-05-03T12:24:21;7.70;;;3.83;;
35877;SDS011;21982;49.804;24.072;2023-05-03T12:26:50;5.63;;;2.88;;
35877;SDS011;21982;49.804;24.072;2023-05-03T12:29:16;6.97;;;4.07;;
35877;SDS011;21982;49.804;24.072;2023-05-03T12:31:41;8.98;;;4.45;;
35877;SDS011;21982;49.804;24.072;2023-05-03T12:34:07;7.70;;;4.07;;
35877;SDS011;21982;49.804;24.072;2023-05-03T12:36:33;7.10;;;3.53;;
35877;SDS011;21982;49.804;24.072;2023-05-03T12:38:59;8.35;;;3.78;;
35877;SDS011;21982;49.804;24.072;2023-05-03T12:41:25;8.32;;;3.63;;
35877;SDS011;21982;49.804;24.072;2023-05-03T12:43:53;6.03;;;3.30;;
35877;SDS011;21982;49.804;24.072;2023-05-03T12:46:20;7.80;;;3.30;;
35877;SDS011;21982;49.804;24.072;2023-05-03T12:48:47;9.25;;;4.20;;
35877;SDS011;21982;49.804;24.072;2023-05-03T12:51:13;8.23;;;4.28;;
35877;SDS011;21982;49.804;24.072;2023-05-03T12:53:38;13.88;;;3.85;;
35877;SDS011;21982;49.804;24.072;2023-05-03T12:56:04;7.35;;;3.25;;
35877;SDS011;21982;49.804;24.072;2023-05-03T12:58:30;9.85;;;4.18;;
35877;SDS011;21982;49.804;24.072;2023-05-03T13:00:55;6.97;;;2.92;;
35877;SDS011;21982;49.804;24.072;2023-05-03T13:03:22;9.43;;;3.05;;
35877;SDS011;21982;49.804;24.072;2023-05-03T13:05:49;5.50;;;3.05;;
35877;SDS011;21982;49.804;24.072;2023-05-03T13:10:50;8.63;;;3.13;;
35877;SDS011;21982;49.804;24.072;2023-05-03T13:13:19;5.20;;;3.35;;
35877;SDS011;21982;49.804;24.072;2023-05-03T13:15:45;9.25;;;4.70;;
35877;SDS011;21982;49.804;24.072;2023-05-03T13:18:11;11.57;;;5.88;;
35877;SDS011;21982;49.804;24.072;2023-05-03T13:20:38;12.43;;;5.47;;
35877;SDS011;21982;49.804;24.072;2023-05-03T13:23:04;10.35;;;5.38;;
35877;SDS011;21982;49.804;24.072;2023-05-03T13:25:29;8.85;;;5.50;;
35877;SDS011;21982;49.804;24.072;2023-05-03T13:27:55;14.43;;;7.28;;
35877;SDS011;21982;49.804;24.072;2023-05-03T13:30:21;13.50;;;6.88;;
35877;SDS011;21982;49.804;24.072;2023-05-03T13:32:49;15.15;;;6.60;;
35877;SDS011;21982;49.804;24.072;2023-05-03T13:35:16;15.63;;;6.25;;
35877;SDS011;21982;49.804;24.072;2023-05-03T13:37:42;11.85;;;6.93;;
35877;SDS011;21982;49.804;24.072;2023-05-03T13:40:08;11.57;;;6.28;;
35877;SDS011;21982;49.804;24.072;2023-05-03T13:42:34;11.02;;;5.80;;
35877;SDS011;21982;49.804;24.072;2023-05-03T13:45:00;8.57;;;5.15;;
35877;SDS011;21982;49.804;24.072;2023-05-03T13:47:26;10.70;;;6.47;;
35877;SDS011;21982;49.804;24.072;2023-05-03T13:49:55;27.10;;;7.47;;
35877;SDS011;21982;49.804;24.072;2023-05-03T13:52:23;13.75;;;6.13;;
35877;SDS011;21982;49.804;24.072;2023-05-03T13:54:48;11.95;;;6.32;;
35877;SDS011;21982;49.804;24.072;2023-05-03T13:57:14;15.10;;;6.82;;
35877;SDS011;21982;49.804;24.072;2023-05-03T13:59:39;11.45;;;5.63;;
35877;SDS011;21982;49.804;24.072;2023-05-03T14:02:06;11.13;;;5.93;;
35877;SDS011;21982;49.804;24.072;2023-05-03T14:04:32;11.52;;;5.82;;
35877;SDS011;21982;49.804;24.072;2023-05-03T14:06:58;8.38;;;5.30;;
35877;SDS011;21982;49.804;24.072;2023-05-03T14:09:27;9.73;;;5.68;;
35877;SDS011;21982;49.804;24.072;2023-05-03T14:11:54;11.60;;;5.65;;
35877;SDS011;21982;49.804;24.072;2023-05-03T14:14:20;12.38;;;5.15;;
35877;SDS011;21982;49.804;24.072;2023-05-03T14:21:56;15.00;;;5.47;;
35877;SDS011;21982;49.804;24.072;2023-05-03T14:29:33;10.43;;;4.57;;
35877;SDS011;21982;49.804;24.072;2023-05-03T14:31:59;10.73;;;5.43;;
35877;SDS011;21982;49.804;24.072;2023-05-03T14:34:25;7.78;;;4.68;;
35877;SDS011;21982;49.804;24.072;2023-05-03T14:36:50;8.18;;;4.40;;
35877;SDS011;21982;49.804;24.072;2023-05-03T14:39:19;10.82;;;5.47;;
35877;SDS011;21982;49.804;24.072;2023-05-03T14:41:45;10.93;;;5.13;;
35877;SDS011;21982;49.804;24.072;2023-05-03T14:44:13;9.07;;;5.05;;
35877;SDS011;21982;49.804;24.072;2023-05-03T14:46:39;10.90;;;5.60;;
35877;SDS011;21982;49.804;24.072;2023-05-03T14:49:04;11.52;;;5.25;;
35877;SDS011;21982;49.804;24.072;2023-05-03T14:51:32;14.25;;;5.72;;
35877;SDS011;21982;49.804;24.072;2023-05-03T14:53:59;11.63;;;4.63;;
35877;SDS011;21982;49.804;24.072;2023-05-03T14:56:24;8.35;;;4.25;;
35877;SDS011;21982;49.804;24.072;2023-05-03T14:58:50;11.48;;;4.47;;
35877;SDS011;21982;49.804;24.072;2023-05-03T15:01:21;8.52;;;3.88;;
35877;SDS011;21982;49.804;24.072;2023-05-03T15:03:47;7.72;;;4.28;;
35877;SDS011;21982;49.804;24.072;2023-05-03T15:06:21;9.80;;;4.57;;
35877;SDS011;21982;49.804;24.072;2023-05-03T15:08:47;8.98;;;4.22;;
35877;SDS011;21982;49.804;24.072;2023-05-03T15:11:13;9.48;;;3.97;;
35877;SDS011;21982;49.804;24.072;2023-05-03T15:13:39;7.40;;;3.53;;
35877;SDS011;21982;49.804;24.072;2023-05-03T15:16:04;8.95;;;4.32;;
35877;SDS011;21982;49.804;24.072;2023-05-03T15:18:30;9.63;;;4.47;;